Papere Vagabonde

Aviosuperficie Caposile LIKI

Pista 04


Pista 22

Le immagini vengono aggiornate ogni minuto
Cliccare sull'immagine per l'ingrandimento.

METAR LIPZ

LIPZ 281550Z 15004KT 110V170 9999 FEW070 28/21 Q1011 NOSIG

TAF LIPZ 281100Z 2812/2918 16012KT 9999 SCT050
  TEMPO 2812/2819 4000 TSRA
  BECMG 2818/2820 VRB05KT
  BECMG 2908/2910 16012KT


      

Alba: 05:49
Tramonto: 20:43

LOW LEVEL SIGWX CHART

ALL WEATHER DATA